Time;durP1;ratioP1;P1;durP2;ratioP2;P2;SDS_P1;SDS_P2;PMS_P1;PMS_P2;Temp;Humidity;BMP_temperature;BMP_pressure;BME280_temperature;BME280_humidity;BME280_pressure;Samples;Min_cycle;Max_cycle;Signal;HPM_P1;HPM_P2
2022/05/25 00:13:11;;;;;;;22.80;12.80;;;;;;;16.40;99.55;99872.24;712204;1180;115504;-76
2022/05/25 00:28:15;;;;;;;11.65;8.20;;;;;;;16.46;100.00;99858.28;712306;1178;115882;-76
2022/05/25 00:43:17;;;;;;;16.10;9.45;;;;;;;16.51;100.00;99880.73;712349;1177;115457;-76
2022/05/25 00:58:19;;;;;;;11.58;8.33;;;;;;;16.59;100.00;99878.01;712281;1180;114921;-76
2022/05/25 01:14:04;;;;;;;12.70;8.50;;;;;;;16.49;100.00;99867.69;712214;1178;115727;-76
2022/05/25 01:29:17;;;;;;;15.50;9.37;;;;;;;16.58;100.00;99860.47;712280;1177;115578;-76
2022/05/25 01:44:27;;;;;;;10.10;8.10;;;;;;;16.54;100.00;99867.15;712205;1180;115716;-77
2022/05/25 01:59:29;;;;;;;15.68;9.25;;;;;;;16.59;100.00;99862.93;711962;1178;115638;-75
2022/05/25 02:14:51;;;;;;;20.05;12.15;;;;;;;16.52;100.00;99885.84;712100;1180;115210;-76
2022/05/25 02:30:01;;;;;;;19.57;12.07;;;;;;;16.61;100.00;99907.75;711849;1180;115778;-74
2022/05/25 02:45:04;;;;;;;17.70;11.33;;;;;;;16.61;100.00;99920.99;712315;1180;115409;-74
2022/05/25 03:00:09;;;;;;;83.83;41.40;;;;;;;16.44;100.00;99923.84;711787;1178;115756;-74
2022/05/25 03:15:11;;;;;;;15.80;11.63;;;;;;;16.51;100.00;99938.98;712232;1180;115950;-74
2022/05/25 03:30:16;;;;;;;20.17;13.23;;;;;;;16.66;100.00;99950.40;712145;1178;115506;-74
2022/05/25 03:45:19;;;;;;;20.87;14.63;;;;;;;16.74;100.00;99960.08;712107;1178;115395;-74
2022/05/25 04:00:23;;;;;;;21.27;15.43;;;;;;;16.89;100.00;99973.30;712102;1180;115679;-74
2022/05/25 04:15:29;;;;;;;23.07;15.97;;;;;;;16.95;100.00;99991.96;712639;1179;115888;-74
2022/05/25 04:30:31;;;;;;;26.40;16.55;;;;;;;17.19;100.00;99978.60;712854;1178;115343;-73
2022/05/25 04:45:34;;;;;;;22.65;16.55;;;;;;;17.35;100.00;99977.55;712995;1178;115284;-73
2022/05/25 05:00:36;;;;;;;20.73;14.27;;;;;;;17.30;100.00;99992.20;712698;1179;115229;-74
2022/05/25 05:15:41;;;;;;;21.40;14.15;;;;;;;17.78;100.00;99985.55;712938;1179;114406;-74
2022/05/25 05:30:52;;;;;;;15.93;11.03;;;;;;;18.00;100.00;99997.01;712649;1180;115884;-74
2022/05/25 05:45:56;;;;;;;16.77;11.93;;;;;;;18.19;100.00;100016.75;712855;1177;114780;-77
2022/05/25 06:00:58;;;;;;;14.15;10.90;;;;;;;18.27;100.00;100019.27;713236;1177;118840;-73
2022/05/25 06:31:22;;;;;;;15.80;12.20;;;;;;;19.36;100.00;100003.77;713119;1179;115982;-72
2022/05/25 06:46:24;;;;;;;12.43;10.20;;;;;;;19.98;99.19;99984.23;717898;1178;115119;-74
2022/05/25 07:01:28;;;;;;;13.85;9.95;;;;;;;19.89;96.58;100020.90;715452;1179;115075;-74
2022/05/25 07:16:31;;;;;;;12.90;9.53;;;;;;;20.54;95.42;100041.59;712811;1179;115738;-75
2022/05/25 07:31:34;;;;;;;9.30;7.65;;;;;;;20.51;92.80;100082.78;712482;1177;115296;-75
2022/05/25 07:46:37;;;;;;;14.37;8.70;;;;;;;20.67;93.18;100084.20;713191;1180;114584;-73
2022/05/25 08:17:26;;;;;;;7.20;6.33;;;;;;;21.06;87.38;100127.86;712437;1178;114189;-74
2022/05/25 08:32:28;;;;;;;7.08;6.23;;;;;;;21.71;84.60;100136.90;712714;1178;115434;-74
2022/05/25 08:47:48;;;;;;;6.10;5.50;;;;;;;21.21;83.42;100140.14;712793;1179;115640;-74
2022/05/25 09:03:09;;;;;;;9.68;6.83;;;;;;;21.21;83.92;100151.62;712934;1178;115628;-74
2022/05/25 09:18:15;;;;;;;6.73;5.83;;;;;;;21.09;84.18;100162.11;712597;1177;115823;-74
2022/05/25 09:33:36;;;;;;;8.45;6.20;;;;;;;20.92;84.92;100185.70;713035;1177;115435;-75
2022/05/25 09:48:52;;;;;;;7.20;5.20;;;;;;;21.14;85.53;100188.13;712372;1180;115750;-74
2022/05/25 10:03:55;;;;;;;9.60;5.70;;;;;;;21.34;84.43;100204.13;712639;1180;114605;-75
2022/05/25 10:19:00;;;;;;;8.63;5.35;;;;;;;21.10;82.14;100194.91;712946;1177;115081;-75
2022/05/25 10:49:42;;;;;;;8.97;6.17;;;;;;;21.72;81.98;100206.11;712873;1177;114914;-75
2022/05/25 11:05:14;;;;;;;5.87;4.87;;;;;;;21.46;80.81;100217.65;712733;1179;114851;-75
2022/05/25 11:20:31;;;;;;;9.45;5.15;;;;;;;21.47;80.06;100221.13;712401;1179;114155;-74
2022/05/25 11:35:54;;;;;;;11.80;7.15;;;;;;;20.98;80.95;100216.05;713086;1180;114808;-76
2022/05/25 11:51:23;;;;;;;9.30;6.37;;;;;;;19.78;84.00;100228.02;715266;1180;115192;-76
2022/05/25 12:06:39;;;;;;;;;;;;;;;18.62;86.66;100261.06;714796;1179;114070;-76
2022/05/25 12:21:47;;;;;;;14.60;6.70;;;;;;;18.02;86.33;100270.16;713367;1178;101665;-77
2022/05/25 12:36:51;;;;;;;6.55;4.20;;;;;;;18.11;87.57;100272.52;716736;1178;115034;-76
2022/05/25 12:51:54;;;;;;;10.80;4.58;;;;;;;18.20;88.09;100270.59;713286;1179;114278;-76
2022/05/25 13:06:56;;;;;;;112.35;47.48;;;;;;;18.17;89.32;100265.64;714945;1178;115091;-77
2022/05/25 13:22:10;;;;;;;93.67;47.70;;;;;;;17.85;91.90;100256.23;717264;1180;114587;-75
2022/05/25 13:37:14;;;;;;;93.35;59.53;;;;;;;17.64;93.42;100217.98;723185;1178;115541;-74
2022/05/25 13:52:27;;;;;;;58.35;35.35;;;;;;;17.24;95.60;100204.17;713388;1180;115374;-78
2022/05/25 14:07:38;;;;;;;22.30;14.70;;;;;;;17.75;94.85;100206.92;712956;1180;114838;-80
2022/05/25 14:22:43;;;;;;;36.70;21.10;;;;;;;17.79;93.20;100184.33;713317;1177;115713;-80
2022/05/25 14:37:49;;;;;;;105.28;40.18;;;;;;;18.19;94.13;100186.66;714394;1180;115761;-80
2022/05/25 14:53:30;;;;;;;126.97;51.23;;;;;;;18.34;94.10;100178.63;713470;1179;114696;-80
2022/05/25 15:08:37;;;;;;;11.85;8.15;;;;;;;18.41;91.90;100160.94;713073;1178;114801;-78
2022/05/25 15:23:44;;;;;;;11.77;7.63;;;;;;;18.29;91.16;100157.97;713077;1180;115060;-77
2022/05/25 15:38:55;;;;;;;10.25;5.70;;;;;;;17.97;91.18;100177.82;712702;1178;115796;-77
2022/05/25 15:53:59;;;;;;;30.23;18.17;;;;;;;18.17;91.79;100180.69;712876;1177;115600;-78
2022/05/25 16:09:19;;;;;;;210.55;138.25;;;;;;;18.04;92.31;100162.81;713059;1180;114526;-78
2022/05/25 16:24:22;;;;;;;19.97;14.00;;;;;;;17.65;94.47;100194.95;713188;1179;116218;-78
2022/05/25 16:39:25;;;;;;;33.80;22.50;;;;;;;17.91;94.97;100192.63;713131;1178;115817;-77
2022/05/25 16:54:28;;;;;;;13.30;8.50;;;;;;;18.25;94.88;100171.80;712614;1180;115849;-77
2022/05/25 17:09:31;;;;;;;24.20;11.80;;;;;;;18.97;93.90;100179.84;713611;1177;115645;-78
2022/05/25 17:24:35;;;;;;;11.05;7.85;;;;;;;19.40;91.68;100177.88;712983;1177;115372;-77
2022/05/25 17:54:59;;;;;;;9.70;7.00;;;;;;;18.73;89.87;100182.67;713294;1180;115730;-76
2022/05/25 18:10:03;;;;;;;9.85;6.60;;;;;;;18.34;91.50;100191.91;712793;1179;115014;-80
2022/05/25 18:25:06;;;;;;;11.07;7.43;;;;;;;17.75;92.00;100222.00;713882;1180;115360;-80
2022/05/25 18:40:09;;;;;;;13.10;7.77;;;;;;;17.08;94.00;100231.66;714906;1179;115731;-80
2022/05/25 18:55:13;;;;;;;14.30;8.50;;;;;;;16.79;95.54;100238.48;715254;1171;115125;-83
2022/05/25 19:10:16;;;;;;;12.60;8.20;;;;;;;16.38;96.37;100247.51;714711;1177;115221;-82
2022/05/25 19:25:26;;;;;;;55.38;21.55;;;;;;;16.24;98.39;100272.88;714249;1179;115899;-82
2022/05/25 19:40:31;;;;;;;10.53;7.30;;;;;;;16.04;100.00;100333.33;714662;1177;115299;-83
2022/05/25 19:55:34;;;;;;;6.13;4.10;;;;;;;15.88;95.71;100322.80;714527;1180;115548;-81
2022/05/25 20:10:37;;;;;;;3.70;2.50;;;;;;;15.75;94.07;100310.06;719566;1180;115279;-81
2022/05/25 20:25:42;;;;;;;3.58;2.35;;;;;;;15.44;93.30;100316.03;714141;1179;114206;-81
2022/05/25 20:40:45;;;;;;;5.55;3.08;;;;;;;15.00;95.28;100288.13;716673;1177;115210;-80
2022/05/25 20:55:47;;;;;;;5.03;2.87;;;;;;;15.19;95.12;100257.08;716054;1180;114934;-80
2022/05/25 21:10:50;;;;;;;5.30;2.60;;;;;;;14.85;97.30;100252.81;715206;1177;114421;-81
2022/05/25 21:25:53;;;;;;;31.13;12.23;;;;;;;14.46;98.99;100260.30;714966;1180;115716;-81
2022/05/25 21:40:55;;;;;;;8.60;6.83;;;;;;;14.32;100.00;100253.01;715054;1177;115536;-81
2022/05/25 21:55:58;;;;;;;5.70;4.30;;;;;;;14.12;100.00;100245.35;712250;1170;114473;-80
2022/05/25 22:11:00;;;;;;;4.80;3.80;;;;;;;13.99;100.00;100244.97;712072;1178;114545;-81
2022/05/25 22:26:02;;;;;;;8.30;5.33;;;;;;;13.96;100.00;100250.55;712599;1177;114731;-81
2022/05/25 22:41:04;;;;;;;8.20;5.17;;;;;;;13.83;100.00;100252.80;713045;1179;114252;-80
2022/05/25 22:56:06;;;;;;;6.20;3.40;;;;;;;13.52;100.00;100235.66;713719;1178;114974;-80
2022/05/25 23:11:09;;;;;;;5.00;3.20;;;;;;;13.27;100.00;100238.09;712250;1179;114736;-79
2022/05/25 23:26:12;;;;;;;4.87;3.60;;;;;;;13.03;100.00;100244.02;712361;1177;115746;-80
2022/05/25 23:56:36;;;;;;;14.27;6.40;;;;;;;12.64;100.00;100255.69;712888;1177;115329;-81
